sensor_id;sensor_type;location;lat;lon;timestamp;pressure;altitude;pressure_sealevel;temperature;humidity
15884;BME280;8040;50.254;10.960;2023-03-20T00:00:35;98343.97;;;11.04;90.61
15884;BME280;8040;50.254;10.960;2023-03-20T00:03:01;98343.97;;;11.04;90.16
15884;BME280;8040;50.254;10.960;2023-03-20T00:05:27;98343.25;;;10.99;90.21
15884;BME280;8040;50.254;10.960;2023-03-20T00:07:53;98343.84;;;10.96;90.17
15884;BME280;8040;50.254;10.960;2023-03-20T00:10:19;98350.97;;;10.92;89.98
15884;BME280;8040;50.254;10.960;2023-03-20T00:12:46;98348.34;;;10.87;90.82
15884;BME280;8040;50.254;10.960;2023-03-20T00:15:21;98344.75;;;10.91;91.16
15884;BME280;8040;50.254;10.960;2023-03-20T00:17:47;98345.63;;;10.87;91.54
15884;BME280;8040;50.254;10.960;2023-03-20T00:20:14;98343.25;;;10.85;91.22
15884;BME280;8040;50.254;10.960;2023-03-20T00:22:39;98335.88;;;10.86;91.38
15884;BME280;8040;50.254;10.960;2023-03-20T00:25:05;98341.63;;;10.84;91.61
15884;BME280;8040;50.254;10.960;2023-03-20T00:27:30;98338.59;;;10.86;91.50
15884;BME280;8040;50.254;10.960;2023-03-20T00:29:56;98343.94;;;10.91;91.01
15884;BME280;8040;50.254;10.960;2023-03-20T00:32:22;98331.28;;;10.86;91.03
15884;BME280;8040;50.254;10.960;2023-03-20T00:34:47;98335.31;;;10.89;90.94
15884;BME280;8040;50.254;10.960;2023-03-20T00:37:12;98339.63;;;10.90;90.95
15884;BME280;8040;50.254;10.960;2023-03-20T00:39:38;98336.91;;;10.90;90.91
15884;BME280;8040;50.254;10.960;2023-03-20T00:42:04;98334.78;;;10.87;91.22
15884;BME280;8040;50.254;10.960;2023-03-20T00:44:35;98345.06;;;10.90;90.76
15884;BME280;8040;50.254;10.960;2023-03-20T00:47:02;98345.84;;;10.90;91.15
15884;BME280;8040;50.254;10.960;2023-03-20T00:49:30;98343.66;;;10.92;90.91
15884;BME280;8040;50.254;10.960;2023-03-20T00:51:56;98343.13;;;10.90;90.87
15884;BME280;8040;50.254;10.960;2023-03-20T00:54:22;98341.84;;;10.88;90.40
15884;BME280;8040;50.254;10.960;2023-03-20T00:56:51;98340.22;;;10.87;90.92
15884;BME280;8040;50.254;10.960;2023-03-20T00:59:19;98343.44;;;10.89;90.57
15884;BME280;8040;50.254;10.960;2023-03-20T01:01:45;98336.41;;;10.88;90.68
15884;BME280;8040;50.254;10.960;2023-03-20T01:04:11;98340.72;;;10.89;90.54
15884;BME280;8040;50.254;10.960;2023-03-20T01:06:38;98338.59;;;10.86;90.02
15884;BME280;8040;50.254;10.960;2023-03-20T01:09:03;98332.69;;;10.84;90.28
15884;BME280;8040;50.254;10.960;2023-03-20T01:11:29;98346.34;;;10.79;91.08
15884;BME280;8040;50.254;10.960;2023-03-20T01:13:55;98343.13;;;10.77;90.87
15884;BME280;8040;50.254;10.960;2023-03-20T01:16:22;98338.81;;;10.76;91.38
15884;BME280;8040;50.254;10.960;2023-03-20T01:18:48;98346.41;;;10.74;90.91
15884;BME280;8040;50.254;10.960;2023-03-20T01:21:14;98353.78;;;10.73;91.13
15884;BME280;8040;50.254;10.960;2023-03-20T01:23:40;98341.59;;;10.71;91.08
15884;BME280;8040;50.254;10.960;2023-03-20T01:26:33;98354.56;;;10.74;91.18
15884;BME280;8040;50.254;10.960;2023-03-20T01:28:51;98357.28;;;10.74;90.91
15884;BME280;8040;50.254;10.960;2023-03-20T01:31:20;98347.19;;;10.61;90.93
15884;BME280;8040;50.254;10.960;2023-03-20T01:33:45;98364.41;;;10.70;90.52
15884;BME280;8040;50.254;10.960;2023-03-20T01:36:11;98361.91;;;10.73;90.17
15884;BME280;8040;50.254;10.960;2023-03-20T01:38:37;98366.59;;;10.68;90.76
15884;BME280;8040;50.254;10.960;2023-03-20T01:41:06;98358.44;;;10.68;90.67
15884;BME280;8040;50.254;10.960;2023-03-20T01:43:34;98366.91;;;10.66;90.56
15884;BME280;8040;50.254;10.960;2023-03-20T01:46:01;98367.69;;;10.67;90.29
15884;BME280;8040;50.254;10.960;2023-03-20T01:48:34;98369.91;;;10.65;90.51
15884;BME280;8040;50.254;10.960;2023-03-20T01:51:01;98368.19;;;10.69;90.28
15884;BME280;8040;50.254;10.960;2023-03-20T01:53:27;98370.41;;;10.67;90.00
15884;BME280;8040;50.254;10.960;2023-03-20T01:55:53;98364.50;;;10.65;90.29
15884;BME280;8040;50.254;10.960;2023-03-20T01:58:30;98362.16;;;10.58;90.63
15884;BME280;8040;50.254;10.960;2023-03-20T02:00:57;98353.00;;;10.54;90.87
15884;BME280;8040;50.254;10.960;2023-03-20T02:03:22;98361.56;;;10.61;90.88
15884;BME280;8040;50.254;10.960;2023-03-20T02:05:48;98371.09;;;10.59;90.49
15884;BME280;8040;50.254;10.960;2023-03-20T02:08:17;98368.38;;;10.59;90.66
15884;BME280;8040;50.254;10.960;2023-03-20T02:10:45;98370.28;;;10.58;90.73
15884;BME280;8040;50.254;10.960;2023-03-20T02:13:10;98368.88;;;10.61;90.49
15884;BME280;8040;50.254;10.960;2023-03-20T02:15:51;98362.34;;;10.62;90.63
15884;BME280;8040;50.254;10.960;2023-03-20T02:18:17;98368.69;;;10.57;90.48
15884;BME280;8040;50.254;10.960;2023-03-20T02:39:01;98373.81;;;10.59;90.08
15884;BME280;8040;50.254;10.960;2023-03-20T02:41:37;98376.53;;;10.59;90.13
15884;BME280;8040;50.254;10.960;2023-03-20T02:49:26;98362.44;;;10.57;90.44
15884;BME280;8040;50.254;10.960;2023-03-20T02:54:23;98371.38;;;10.57;90.30
15884;BME280;8040;50.254;10.960;2023-03-20T02:57:04;98366.25;;;10.56;89.86
15884;BME280;8040;50.254;10.960;2023-03-20T03:02:06;98371.69;;;10.56;90.00
15884;BME280;8040;50.254;10.960;2023-03-20T03:04:40;98368.38;;;10.59;89.74
15884;BME280;8040;50.254;10.960;2023-03-20T03:07:09;98367.66;;;10.53;89.24
15884;BME280;8040;50.254;10.960;2023-03-20T03:09:40;98366.03;;;10.52;89.39
15884;BME280;8040;50.254;10.960;2023-03-20T03:15:44;98367.66;;;10.53;90.14
15884;BME280;8040;50.254;10.960;2023-03-20T03:17:51;98363.03;;;10.54;89.65
15884;BME280;8040;50.254;10.960;2023-03-20T03:20:21;98370.28;;;10.58;89.71
15884;BME280;8040;50.254;10.960;2023-03-20T03:22:48;98370.56;;;10.57;90.00
15884;BME280;8040;50.254;10.960;2023-03-20T03:25:14;98368.97;;;10.56;89.88
15884;BME280;8040;50.254;10.960;2023-03-20T03:27:40;98370.88;;;10.55;89.60
15884;BME280;8040;50.254;10.960;2023-03-20T03:30:15;98365.25;;;10.52;89.75
15884;BME280;8040;50.254;10.960;2023-03-20T03:32:45;98354.41;;;10.52;89.87
15884;BME280;8040;50.254;10.960;2023-03-20T03:35:13;98349.78;;;10.52;90.22
15884;BME280;8040;50.254;10.960;2023-03-20T03:37:57;98356.22;;;10.56;89.77
15884;BME280;8040;50.254;10.960;2023-03-20T03:45:41;98360.25;;;10.59;89.97
15884;BME280;8040;50.254;10.960;2023-03-20T03:48:18;98368.88;;;10.61;90.00
15884;BME280;8040;50.254;10.960;2023-03-20T03:51:02;98365.06;;;10.62;90.16
15884;BME280;8040;50.254;10.960;2023-03-20T03:53:30;98362.88;;;10.64;89.38
15884;BME280;8040;50.254;10.960;2023-03-20T03:55:58;98362.56;;;10.65;89.37
15884;BME280;8040;50.254;10.960;2023-03-20T03:58:41;98362.88;;;10.64;89.67
15884;BME280;8040;50.254;10.960;2023-03-20T04:01:08;98363.19;;;10.62;89.96
15884;BME280;8040;50.254;10.960;2023-03-20T04:03:37;98366.09;;;10.66;90.10
15884;BME280;8040;50.254;10.960;2023-03-20T04:06:03;98371.31;;;10.62;90.00
15884;BME280;8040;50.254;10.960;2023-03-20T04:08:30;98370.22;;;10.63;89.91
15884;BME280;8040;50.254;10.960;2023-03-20T04:10:55;98372.41;;;10.61;90.02
15884;BME280;8040;50.254;10.960;2023-03-20T04:13:21;98376.25;;;10.60;90.52
15884;BME280;8040;50.254;10.960;2023-03-20T04:15:46;98358.88;;;10.43;90.36
15884;BME280;8040;50.254;10.960;2023-03-20T04:18:15;98379.25;;;10.59;90.18
15884;BME280;8040;50.254;10.960;2023-03-20T04:20:42;98374.03;;;10.62;90.05
15884;BME280;8040;50.254;10.960;2023-03-20T04:23:07;98372.09;;;10.63;90.21
15884;BME280;8040;50.254;10.960;2023-03-20T04:25:32;98385.44;;;10.59;90.41
15884;BME280;8040;50.254;10.960;2023-03-20T04:27:58;98381.94;;;10.59;90.13
15884;BME280;8040;50.254;10.960;2023-03-20T04:30:23;98391.63;;;10.65;90.14
15884;BME280;8040;50.254;10.960;2023-03-20T04:32:48;98385.97;;;10.61;89.57
15884;BME280;8040;50.254;10.960;2023-03-20T04:35:14;98393.78;;;10.63;89.48
15884;BME280;8040;50.254;10.960;2023-03-20T04:37:39;98395.44;;;10.64;89.94
15884;BME280;8040;50.254;10.960;2023-03-20T04:40:07;98394.63;;;10.63;89.80
15884;BME280;8040;50.254;10.960;2023-03-20T04:42:33;98403.38;;;10.60;89.96
15884;BME280;8040;50.254;10.960;2023-03-20T04:44:59;98398.94;;;10.64;89.87
15884;BME280;8040;50.254;10.960;2023-03-20T04:47:24;98402.47;;;10.65;89.96
15884;BME280;8040;50.254;10.960;2023-03-20T04:49:50;98404.97;;;10.61;90.07
15884;BME280;8040;50.254;10.960;2023-03-20T04:52:15;98408.47;;;10.62;89.82
15884;BME280;8040;50.254;10.960;2023-03-20T04:54:41;98412.00;;;10.62;89.86
15884;BME280;8040;50.254;10.960;2023-03-20T04:57:06;98407.34;;;10.63;89.96
15884;BME280;8040;50.254;10.960;2023-03-20T04:59:31;98410.69;;;10.60;89.62
15884;BME280;8040;50.254;10.960;2023-03-20T05:01:57;98405.75;;;10.62;89.70
15884;BME280;8040;50.254;10.960;2023-03-20T05:04:22;98407.69;;;10.61;89.88
15884;BME280;8040;50.254;10.960;2023-03-20T05:06:47;98405.81;;;10.57;90.07
15884;BME280;8040;50.254;10.960;2023-03-20T05:09:14;98415.50;;;10.63;89.88
15884;BME280;8040;50.254;10.960;2023-03-20T05:11:40;98407.34;;;10.63;89.86
15884;BME280;8040;50.254;10.960;2023-03-20T05:14:05;98403.03;;;10.62;89.89
15884;BME280;8040;50.254;10.960;2023-03-20T05:16:31;98389.13;;;10.50;90.06
15884;BME280;8040;50.254;10.960;2023-03-20T05:18:57;98404.66;;;10.63;90.34
15884;BME280;8040;50.254;10.960;2023-03-20T05:21:22;98416.03;;;10.65;89.58
15884;BME280;8040;50.254;10.960;2023-03-20T05:23:47;98419.03;;;10.63;89.69
15884;BME280;8040;50.254;10.960;2023-03-20T05:26:13;98409.50;;;10.66;89.59
15884;BME280;8040;50.254;10.960;2023-03-20T05:28:41;98411.09;;;10.67;89.46
15884;BME280;8040;50.254;10.960;2023-03-20T05:31:06;98413.31;;;10.65;89.97
15884;BME280;8040;50.254;10.960;2023-03-20T05:33:32;98415.22;;;10.64;90.20
15884;BME280;8040;50.254;10.960;2023-03-20T05:35:57;98425.16;;;10.69;90.10
15884;BME280;8040;50.254;10.960;2023-03-20T05:38:22;98415.97;;;10.70;90.00
15884;BME280;8040;50.254;10.960;2023-03-20T05:40:49;98428.41;;;10.71;90.30
15884;BME280;8040;50.254;10.960;2023-03-20T05:43:14;98425.41;;;10.72;89.85
15884;BME280;8040;50.254;10.960;2023-03-20T05:45:40;98437.88;;;10.73;89.71
15884;BME280;8040;50.254;10.960;2023-03-20T05:48:06;98425.41;;;10.72;89.82
15884;BME280;8040;50.254;10.960;2023-03-20T05:50:31;98427.81;;;10.74;90.05
15884;BME280;8040;50.254;10.960;2023-03-20T05:52:56;98434.84;;;10.75;90.23
15884;BME280;8040;50.254;10.960;2023-03-20T05:55:22;98437.56;;;10.75;89.73
15884;BME280;8040;50.254;10.960;2023-03-20T05:57:47;98442.41;;;10.78;89.91
15884;BME280;8040;50.254;10.960;2023-03-20T06:00:12;98439.09;;;10.81;89.51
15884;BME280;8040;50.254;10.960;2023-03-20T06:02:38;98442.63;;;10.81;89.67
15884;BME280;8040;50.254;10.960;2023-03-20T06:05:03;98438.00;;;10.82;89.61
15884;BME280;8040;50.254;10.960;2023-03-20T06:07:29;98438.50;;;10.84;89.82
15884;BME280;8040;50.254;10.960;2023-03-20T06:09:54;98430.06;;;10.85;89.43
15884;BME280;8040;50.254;10.960;2023-03-20T06:12:19;98434.69;;;10.85;89.90
15884;BME280;8040;50.254;10.960;2023-03-20T06:14:45;98442.03;;;10.84;89.90
15884;BME280;8040;50.254;10.960;2023-03-20T06:17:10;98439.81;;;10.86;89.65
15884;BME280;8040;50.254;10.960;2023-03-20T06:19:36;98441.16;;;10.89;89.33
15884;BME280;8040;50.254;10.960;2023-03-20T06:22:02;98438.34;;;10.94;89.36
15884;BME280;8040;50.254;10.960;2023-03-20T06:24:28;98443.78;;;10.94;89.42
15884;BME280;8040;50.254;10.960;2023-03-20T06:26:53;98440.81;;;10.90;89.01
15884;BME280;8040;50.254;10.960;2023-03-20T06:29:18;98448.38;;;10.93;89.43
15884;BME280;8040;50.254;10.960;2023-03-20T06:31:47;98442.66;;;10.95;89.39
15884;BME280;8040;50.254;10.960;2023-03-20T06:34:12;98437.25;;;10.95;89.39
15884;BME280;8040;50.254;10.960;2023-03-20T06:36:38;98445.88;;;10.97;89.34
15884;BME280;8040;50.254;10.960;2023-03-20T06:39:03;98446.09;;;11.00;89.10
15884;BME280;8040;50.254;10.960;2023-03-20T06:41:28;98443.59;;;11.04;89.00
15884;BME280;8040;50.254;10.960;2023-03-20T06:43:54;98447.81;;;11.10;88.42
15884;BME280;8040;50.254;10.960;2023-03-20T06:46:19;98446.72;;;11.11;88.55
15884;BME280;8040;50.254;10.960;2023-03-20T06:48:45;98450.97;;;11.17;88.31
15884;BME280;8040;50.254;10.960;2023-03-20T06:51:11;98446.84;;;11.19;87.79
15884;BME280;8040;50.254;10.960;2023-03-20T06:53:36;98449.56;;;11.19;87.63
15884;BME280;8040;50.254;10.960;2023-03-20T06:56:02;98449.28;;;11.21;87.45
15884;BME280;8040;50.254;10.960;2023-03-20T06:58:27;98454.31;;;11.27;87.54
15884;BME280;8040;50.254;10.960;2023-03-20T07:00:52;98458.31;;;11.30;87.03
15884;BME280;8040;50.254;10.960;2023-03-20T07:03:18;98453.91;;;11.34;86.98
15884;BME280;8040;50.254;10.960;2023-03-20T07:05:44;98454.94;;;11.38;86.62
15884;BME280;8040;50.254;10.960;2023-03-20T07:08:10;98459.34;;;11.34;86.67
15884;BME280;8040;50.254;10.960;2023-03-20T07:10:35;98455.53;;;11.35;86.37
15884;BME280;8040;50.254;10.960;2023-03-20T07:13:02;98453.91;;;11.34;86.66
15884;BME280;8040;50.254;10.960;2023-03-20T07:15:27;98447.59;;;11.38;86.70
15884;BME280;8040;50.254;10.960;2023-03-20T07:17:54;98450.00;;;11.40;86.97
15884;BME280;8040;50.254;10.960;2023-03-20T07:20:20;98448.09;;;11.40;86.60
15884;BME280;8040;50.254;10.960;2023-03-20T07:22:46;98458.44;;;11.38;86.18
15884;BME280;8040;50.254;10.960;2023-03-20T07:25:12;98452.72;;;11.40;86.89
15884;BME280;8040;50.254;10.960;2023-03-20T07:27:37;98466.31;;;11.40;86.53
15884;BME280;8040;50.254;10.960;2023-03-20T07:30:03;98473.56;;;11.44;86.28
15884;BME280;8040;50.254;10.960;2023-03-20T07:32:29;98477.09;;;11.45;86.64
15884;BME280;8040;50.254;10.960;2023-03-20T07:34:54;98471.66;;;11.45;86.48
15884;BME280;8040;50.254;10.960;2023-03-20T07:37:19;98469.44;;;11.47;86.46
15884;BME280;8040;50.254;10.960;2023-03-20T07:39:45;98464.19;;;11.50;86.53
15884;BME280;8040;50.254;10.960;2023-03-20T07:42:13;98465.94;;;11.60;86.38
15884;BME280;8040;50.254;10.960;2023-03-20T07:44:39;98464.47;;;11.67;86.05
15884;BME280;8040;50.254;10.960;2023-03-20T07:47:04;98470.09;;;11.71;85.45
15884;BME280;8040;50.254;10.960;2023-03-20T07:49:31;98468.97;;;11.72;85.17
15884;BME280;8040;50.254;10.960;2023-03-20T07:51:56;98477.97;;;11.72;84.66
15884;BME280;8040;50.254;10.960;2023-03-20T07:54:22;98480.38;;;11.74;84.47
15884;BME280;8040;50.254;10.960;2023-03-20T07:56:47;98473.53;;;11.76;84.09
15884;BME280;8040;50.254;10.960;2023-03-20T07:59:13;98475.53;;;11.71;83.96
15884;BME280;8040;50.254;10.960;2023-03-20T08:01:38;98471.50;;;11.82;84.31
15884;BME280;8040;50.254;10.960;2023-03-20T08:04:04;98477.97;;;11.86;84.73
15884;BME280;8040;50.254;10.960;2023-03-20T08:06:29;98475.94;;;11.91;84.08
15884;BME280;8040;50.254;10.960;2023-03-20T08:08:55;98475.56;;;11.98;83.40
15884;BME280;8040;50.254;10.960;2023-03-20T08:11:20;98468.47;;;11.97;83.06
15884;BME280;8040;50.254;10.960;2023-03-20T08:13:46;98476.53;;;12.02;83.39
15884;BME280;8040;50.254;10.960;2023-03-20T08:16:12;98474.53;;;12.07;83.11
15884;BME280;8040;50.254;10.960;2023-03-20T08:18:37;98482.38;;;12.09;82.85
15884;BME280;8040;50.254;10.960;2023-03-20T08:21:02;98475.53;;;12.11;82.41
15884;BME280;8040;50.254;10.960;2023-03-20T08:23:28;98477.06;;;12.04;81.56
15884;BME280;8040;50.254;10.960;2023-03-20T08:25:53;98484.69;;;12.02;81.51
15884;BME280;8040;50.254;10.960;2023-03-20T08:28:19;98485.22;;;12.04;81.77
15884;BME280;8040;50.254;10.960;2023-03-20T08:30:44;98488.22;;;12.02;81.29
15884;BME280;8040;50.254;10.960;2023-03-20T08:33:10;98493.97;;;12.01;81.14
15884;BME280;8040;50.254;10.960;2023-03-20T08:35:36;98489.53;;;12.05;81.29
15884;BME280;8040;50.254;10.960;2023-03-20T08:38:02;98488.34;;;12.11;82.46
15884;BME280;8040;50.254;10.960;2023-03-20T08:40:27;98496.25;;;12.21;82.42
15884;BME280;8040;50.254;10.960;2023-03-20T08:42:52;98497.56;;;12.23;82.01
15884;BME280;8040;50.254;10.960;2023-03-20T08:45:18;98501.59;;;12.26;82.09
15884;BME280;8040;50.254;10.960;2023-03-20T08:47:46;98493.81;;;12.33;82.00
15884;BME280;8040;50.254;10.960;2023-03-20T08:50:12;98496.56;;;12.33;81.24
15884;BME280;8040;50.254;10.960;2023-03-20T08:52:37;98505.72;;;12.37;80.75
15884;BME280;8040;50.254;10.960;2023-03-20T08:55:08;98502.09;;;12.41;80.69
15884;BME280;8040;50.254;10.960;2023-03-20T08:57:33;98503.50;;;12.39;80.69
15884;BME280;8040;50.254;10.960;2023-03-20T08:59:58;98501.59;;;12.39;81.00
15884;BME280;8040;50.254;10.960;2023-03-20T09:02:24;98505.91;;;12.40;80.75
15884;BME280;8040;50.254;10.960;2023-03-20T09:04:49;98507.03;;;12.39;80.63
15884;BME280;8040;50.254;10.960;2023-03-20T09:07:14;98503.38;;;12.44;80.60
15884;BME280;8040;50.254;10.960;2023-03-20T09:09:40;98508.03;;;12.43;80.17
15884;BME280;8040;50.254;10.960;2023-03-20T09:12:05;98511.06;;;12.42;80.37
15884;BME280;8040;50.254;10.960;2023-03-20T09:14:31;98518.22;;;12.38;80.28
15884;BME280;8040;50.254;10.960;2023-03-20T09:16:57;98513.19;;;12.31;80.24
15884;BME280;8040;50.254;10.960;2023-03-20T09:19:22;98520.06;;;12.29;80.19
15884;BME280;8040;50.254;10.960;2023-03-20T09:21:47;98522.25;;;12.27;79.68
15884;BME280;8040;50.254;10.960;2023-03-20T09:24:13;98517.31;;;12.29;80.03
15884;BME280;8040;50.254;10.960;2023-03-20T09:26:39;98523.34;;;12.26;80.30
15884;BME280;8040;50.254;10.960;2023-03-20T09:29:04;98522.38;;;12.22;80.48
15884;BME280;8040;50.254;10.960;2023-03-20T09:31:30;98529.91;;;12.25;80.55
15884;BME280;8040;50.254;10.960;2023-03-20T09:33:55;98526.59;;;12.28;80.28
15884;BME280;8040;50.254;10.960;2023-03-20T09:36:21;98534.75;;;12.28;80.24
15884;BME280;8040;50.254;10.960;2023-03-20T09:38:46;98529.63;;;12.26;79.90
15884;BME280;8040;50.254;10.960;2023-03-20T09:41:21;98531.41;;;12.31;80.15
15884;BME280;8040;50.254;10.960;2023-03-20T09:43:57;98532.34;;;12.40;79.75
15884;BME280;8040;50.254;10.960;2023-03-20T09:54:35;98527.66;;;12.54;78.62
15884;BME280;8040;50.254;10.960;2023-03-20T09:57:03;98519.78;;;12.66;78.89
15884;BME280;8040;50.254;10.960;2023-03-20T09:59:31;98522.47;;;12.79;78.88
15884;BME280;8040;50.254;10.960;2023-03-20T10:04:26;98521.28;;;13.07;77.37
15884;BME280;8040;50.254;10.960;2023-03-20T10:06:52;98524.44;;;13.23;77.22
15884;BME280;8040;50.254;10.960;2023-03-20T10:09:23;98519.13;;;13.40;76.41
15884;BME280;8040;50.254;10.960;2023-03-20T10:12:03;98521.72;;;13.45;74.96
15884;BME280;8040;50.254;10.960;2023-03-20T10:14:48;98530.16;;;13.57;75.12
15884;BME280;8040;50.254;10.960;2023-03-20T10:20:00;98527.19;;;13.75;73.71
15884;BME280;8040;50.254;10.960;2023-03-20T10:22:32;98535.69;;;13.74;73.42
15884;BME280;8040;50.254;10.960;2023-03-20T10:25:06;98531.97;;;13.70;72.58
15884;BME280;8040;50.254;10.960;2023-03-20T10:27:39;98531.44;;;13.59;73.37
15884;BME280;8040;50.254;10.960;2023-03-20T10:33:01;98526.13;;;13.54;73.59
15884;BME280;8040;50.254;10.960;2023-03-20T10:38:05;98516.16;;;13.50;74.21
15884;BME280;8040;50.254;10.960;2023-03-20T10:40:37;98515.75;;;13.65;74.49
15884;BME280;8040;50.254;10.960;2023-03-20T10:43:19;98522.06;;;13.74;73.94
15884;BME280;8040;50.254;10.960;2023-03-20T10:45:49;98525.75;;;13.78;73.92
15884;BME280;8040;50.254;10.960;2023-03-20T10:48:22;98524.78;;;13.74;73.59
15884;BME280;8040;50.254;10.960;2023-03-20T10:50:53;98522.38;;;13.72;72.87
15884;BME280;8040;50.254;10.960;2023-03-20T10:53:23;98524.78;;;13.74;73.11
15884;BME280;8040;50.254;10.960;2023-03-20T10:55:50;98527.66;;;13.69;72.98
15884;BME280;8040;50.254;10.960;2023-03-20T10:58:20;98519.28;;;13.65;72.89
15884;BME280;8040;50.254;10.960;2023-03-20T11:00:47;98515.31;;;13.71;73.45
15884;BME280;8040;50.254;10.960;2023-03-20T11:03:31;98524.19;;;13.85;73.04
15884;BME280;8040;50.254;10.960;2023-03-20T11:13:45;98515.25;;;14.24;71.82
15884;BME280;8040;50.254;10.960;2023-03-20T11:16:22;98516.06;;;14.33;70.76
15884;BME280;8040;50.254;10.960;2023-03-20T11:18:48;98512.22;;;14.34;70.44
15884;BME280;8040;50.254;10.960;2023-03-20T11:21:25;98503.88;;;14.39;70.30
15884;BME280;8040;50.254;10.960;2023-03-20T11:24:08;98509.69;;;14.54;69.78
15884;BME280;8040;50.254;10.960;2023-03-20T11:29:18;98517.25;;;14.49;69.60
15884;BME280;8040;50.254;10.960;2023-03-20T11:31:46;98514.84;;;14.56;69.57
15884;BME280;8040;50.254;10.960;2023-03-20T11:36:54;98504.91;;;14.60;68.98
15884;BME280;8040;50.254;10.960;2023-03-20T11:39:26;98500.22;;;14.60;68.28
15884;BME280;8040;50.254;10.960;2023-03-20T11:41:54;98500.06;;;14.65;67.83
15884;BME280;8040;50.254;10.960;2023-03-20T11:44:40;98498.16;;;14.74;68.60
15884;BME280;8040;50.254;10.960;2023-03-20T11:47:17;98499.78;;;14.75;68.15
15884;BME280;8040;50.254;10.960;2023-03-20T11:52:14;98489.00;;;14.70;67.77
15884;BME280;8040;50.254;10.960;2023-03-20T11:54:45;98495.91;;;14.59;67.57
15884;BME280;8040;50.254;10.960;2023-03-20T11:57:25;98501.66;;;14.58;68.07
15884;BME280;8040;50.254;10.960;2023-03-20T11:59:53;98497.81;;;14.50;67.92
15884;BME280;8040;50.254;10.960;2023-03-20T12:02:20;98497.47;;;14.43;67.52
15884;BME280;8040;50.254;10.960;2023-03-20T12:04:47;98489.91;;;14.40;67.65
15884;BME280;8040;50.254;10.960;2023-03-20T12:15:17;98484.28;;;14.37;67.63
15884;BME280;8040;50.254;10.960;2023-03-20T12:20:28;98478.69;;;14.33;66.77
15884;BME280;8040;50.254;10.960;2023-03-20T12:23:08;98476.75;;;14.42;67.20
15884;BME280;8040;50.254;10.960;2023-03-20T12:25:48;98481.41;;;14.33;66.01
15884;BME280;8040;50.254;10.960;2023-03-20T12:28:17;98474.66;;;14.31;66.39
15884;BME280;8040;50.254;10.960;2023-03-20T12:33:12;98476.09;;;14.37;66.59
15884;BME280;8040;50.254;10.960;2023-03-20T12:35:39;98472.09;;;14.43;66.49
15884;BME280;8040;50.254;10.960;2023-03-20T12:46:30;98462.63;;;14.40;67.16
15884;BME280;8040;50.254;10.960;2023-03-20T12:49:02;98463.91;;;14.43;66.63
15884;BME280;8040;50.254;10.960;2023-03-20T13:01:49;98459.78;;;14.54;65.59
15884;BME280;8040;50.254;10.960;2023-03-20T13:06:59;98453.63;;;14.48;65.55
15884;BME280;8040;50.254;10.960;2023-03-20T13:14:44;98441.75;;;14.27;65.57
15884;BME280;8040;50.254;10.960;2023-03-20T13:22:06;98446.28;;;13.93;66.58
15884;BME280;8040;50.254;10.960;2023-03-20T13:24:38;98441.91;;;13.83;66.68
15884;BME280;8040;50.254;10.960;2023-03-20T13:37:50;98421.63;;;14.15;69.63
15884;BME280;8040;50.254;10.960;2023-03-20T13:40:20;98426.00;;;14.33;68.77
15884;BME280;8040;50.254;10.960;2023-03-20T13:47:50;98413.53;;;14.66;65.98
15884;BME280;8040;50.254;10.960;2023-03-20T13:50:23;98416.06;;;14.71;66.07
15884;BME280;8040;50.254;10.960;2023-03-20T13:52:52;98408.22;;;14.78;65.97
15884;BME280;8040;50.254;10.960;2023-03-20T13:55:30;98408.03;;;14.74;65.68
15884;BME280;8040;50.254;10.960;2023-03-20T14:03:10;98392.63;;;14.70;64.55
15884;BME280;8040;50.254;10.960;2023-03-20T14:05:39;98396.31;;;14.74;63.97
15884;BME280;8040;50.254;10.960;2023-03-20T14:08:19;98386.38;;;14.78;63.70
15884;BME280;8040;50.254;10.960;2023-03-20T14:10:45;98395.03;;;14.80;63.17
15884;BME280;8040;50.254;10.960;2023-03-20T14:13:12;98393.44;;;14.79;62.72
15884;BME280;8040;50.254;10.960;2023-03-20T14:15:39;98394.22;;;14.79;62.64
15884;BME280;8040;50.254;10.960;2023-03-20T14:18:16;98389.56;;;14.80;62.80
15884;BME280;8040;50.254;10.960;2023-03-20T14:20:42;98397.63;;;14.76;62.78
15884;BME280;8040;50.254;10.960;2023-03-20T14:23:18;98388.59;;;14.76;62.49
15884;BME280;8040;50.254;10.960;2023-03-20T14:25:44;98390.56;;;14.67;62.75
15884;BME280;8040;50.254;10.960;2023-03-20T14:30:41;98384.78;;;14.68;62.07
15884;BME280;8040;50.254;10.960;2023-03-20T14:35:47;98384.44;;;14.70;63.80
15884;BME280;8040;50.254;10.960;2023-03-20T14:38:23;98387.31;;;14.65;62.63
15884;BME280;8040;50.254;10.960;2023-03-20T14:40:51;98382.69;;;14.65;63.25
15884;BME280;8040;50.254;10.960;2023-03-20T14:46:07;98380.09;;;14.69;62.57
15884;BME280;8040;50.254;10.960;2023-03-20T14:48:42;98379.31;;;14.60;61.85
15884;BME280;8040;50.254;10.960;2023-03-20T14:51:19;98383.50;;;14.66;62.24
15884;BME280;8040;50.254;10.960;2023-03-20T14:53:56;98383.66;;;14.61;61.68
15884;BME280;8040;50.254;10.960;2023-03-20T14:56:28;98379.31;;;14.60;61.85
15884;BME280;8040;50.254;10.960;2023-03-20T14:58:56;98369.69;;;14.54;61.78
15884;BME280;8040;50.254;10.960;2023-03-20T15:01:25;98370.78;;;14.61;62.80
15884;BME280;8040;50.254;10.960;2023-03-20T15:03:52;98370.31;;;14.51;63.67
15884;BME280;8040;50.254;10.960;2023-03-20T15:06:20;98374.97;;;14.42;64.37
15884;BME280;8040;50.254;10.960;2023-03-20T15:08:48;98377.06;;;14.36;64.96
15884;BME280;8040;50.254;10.960;2023-03-20T15:11:14;98371.59;;;14.28;65.59
15884;BME280;8040;50.254;10.960;2023-03-20T15:13:40;98363.38;;;14.19;66.73
15884;BME280;8040;50.254;10.960;2023-03-20T15:16:08;98372.34;;;14.11;67.26
15884;BME280;8040;50.254;10.960;2023-03-20T15:18:36;98372.50;;;14.06;68.01
15884;BME280;8040;50.254;10.960;2023-03-20T15:21:02;98366.06;;;13.94;67.16
15884;BME280;8040;50.254;10.960;2023-03-20T15:23:27;98364.63;;;13.88;68.45
15884;BME280;8040;50.254;10.960;2023-03-20T15:25:53;98370.22;;;13.83;68.79
15884;BME280;8040;50.254;10.960;2023-03-20T15:28:22;98369.09;;;13.84;69.29